createdAt,value
2023-05-09T00:00:15.147Z,54.15
2023-05-09T00:01:19.982Z,53.93
2023-05-09T00:02:23.958Z,53.67
2023-05-09T00:03:28.167Z,54.09
2023-05-09T00:04:33.017Z,53.94
2023-05-09T00:05:36.967Z,53.79
2023-05-09T00:06:39.808Z,53.77
2023-05-09T00:07:45.224Z,53.88
2023-05-09T00:08:48.273Z,54.07
2023-05-09T00:09:52.190Z,53.75
2023-05-09T00:10:55.349Z,54.38
2023-05-09T00:11:59.202Z,54.88
2023-05-09T00:13:02.104Z,54.65
2023-05-09T00:14:06.944Z,54.54
2023-05-09T00:15:10.999Z,54.66
2023-05-09T00:16:16.319Z,54.78
2023-05-09T00:17:19.772Z,55.11
2023-05-09T00:18:23.875Z,55.15
2023-05-09T00:19:26.888Z,55.51
2023-05-09T00:20:32.443Z,55.17
2023-05-09T00:21:35.760Z,55.38
2023-05-09T00:22:40.037Z,55.18
2023-05-09T00:23:44.495Z,55.05
2023-05-09T00:24:48.585Z,55.17
2023-05-09T00:25:51.607Z,55.26
2023-05-09T00:26:56.109Z,54.96
2023-05-09T00:27:58.933Z,54.77
2023-05-09T00:29:02.893Z,54.83
2023-05-09T00:30:07.144Z,54.90
2023-05-09T00:31:11.595Z,55.02
2023-05-09T00:32:14.998Z,55.08
2023-05-09T00:33:18.919Z,55.15
2023-05-09T00:34:21.830Z,54.96
2023-05-09T00:35:26.213Z,54.83
2023-05-09T00:36:29.787Z,54.74
2023-05-09T00:37:33.775Z,54.58
2023-05-09T00:38:36.540Z,54.26
2023-05-09T00:39:41.914Z,54.33
2023-05-09T00:40:44.668Z,53.84
2023-05-09T00:41:48.657Z,53.83
2023-05-09T00:42:51.733Z,54.04
2023-05-09T00:43:55.623Z,53.77
2023-05-09T00:44:58.670Z,53.86
2023-05-09T00:46:03.502Z,54.02
2023-05-09T00:47:07.029Z,54.02
2023-05-09T00:48:10.942Z,53.75
2023-05-09T00:49:14.043Z,53.92
2023-05-09T00:50:18.295Z,53.73
2023-05-09T00:51:23.419Z,53.85
2023-05-09T00:52:26.994Z,53.89
2023-05-09T00:53:30.924Z,54.12
2023-05-09T00:54:33.514Z,53.78
2023-05-09T00:55:42.107Z,54.06
2023-05-09T00:56:45.598Z,53.76
2023-05-09T00:57:51.075Z,54.01
2023-05-09T00:58:55.779Z,53.89
2023-05-09T00:59:59.610Z,53.89
2023-05-09T01:01:04.062Z,53.64
2023-05-09T01:02:08.498Z,53.46
2023-05-09T01:03:11.656Z,53.32
2023-05-09T01:04:16.514Z,53.33
2023-05-09T01:05:20.359Z,53.19
2023-05-09T01:06:34.663Z,52.98
2023-05-09T01:07:45.237Z,53.16
2023-05-09T01:08:56.758Z,53.09
2023-05-09T01:10:09.487Z,53.02
2023-05-09T01:11:21.761Z,53.34
2023-05-09T01:12:37.148Z,53.03
2023-05-09T01:13:50.556Z,53.11
2023-05-09T01:15:02.780Z,52.90
2023-05-09T01:16:11.526Z,53.11
2023-05-09T01:17:26.607Z,52.99
2023-05-09T01:18:39.175Z,53.18
2023-05-09T01:19:58.719Z,54.57
2023-05-09T01:21:09.038Z,54.61
2023-05-09T01:22:16.530Z,54.66
2023-05-09T01:23:42.537Z,54.59
2023-05-09T01:25:06.991Z,54.61
2023-05-09T01:26:21.979Z,54.76
2023-05-09T01:27:37.898Z,54.89
2023-05-09T01:29:00.584Z,55.00
2023-05-09T01:30:07.274Z,55.00
2023-05-09T01:31:12.132Z,55.06
2023-05-09T01:32:20.183Z,55.18
2023-05-09T01:33:26.563Z,55.67
2023-05-09T01:34:31.072Z,55.60
2023-05-09T01:35:37.567Z,55.82
2023-05-09T01:36:42.718Z,55.77
2023-05-09T01:37:52.124Z,56.33
2023-05-09T01:38:57.509Z,57.10
2023-05-09T01:40:08.539Z,57.66
2023-05-09T01:41:15.791Z,58.23
2023-05-09T01:42:21.786Z,57.98
2023-05-09T01:43:28.316Z,58.11
2023-05-09T01:44:37.016Z,58.03
2023-05-09T01:45:43.543Z,58.11
2023-05-09T01:46:49.297Z,57.83
2023-05-09T01:47:53.418Z,57.61
2023-05-09T01:48:59.255Z,56.90
2023-05-09T01:50:03.681Z,56.90
2023-05-09T01:51:09.014Z,56.78
2023-05-09T01:52:15.591Z,56.82
2023-05-09T01:53:19.847Z,56.83
2023-05-09T01:54:26.561Z,56.34
2023-05-09T01:55:34.367Z,56.45
2023-05-09T01:56:38.674Z,56.29
2023-05-09T01:57:44.714Z,56.13
2023-05-09T01:58:50.603Z,55.63
2023-05-09T01:59:56.856Z,55.67
2023-05-09T02:01:03.767Z,55.63
2023-05-09T02:02:09.257Z,55.59
2023-05-09T02:03:12.531Z,55.40
2023-05-09T02:04:19.573Z,55.46
2023-05-09T02:05:26.461Z,55.26
2023-05-09T02:06:31.407Z,55.37
2023-05-09T02:07:35.664Z,55.32
2023-05-09T02:08:39.799Z,54.99
2023-05-09T02:09:42.777Z,55.10
2023-05-09T02:10:47.943Z,55.22
2023-05-09T02:11:51.191Z,55.06
2023-05-09T02:12:55.778Z,55.10
2023-05-09T02:13:59.049Z,54.23
2023-05-09T02:15:03.080Z,54.13
2023-05-09T02:16:12.340Z,54.22
2023-05-09T02:17:17.259Z,54.75
2023-05-09T02:18:20.339Z,54.38
2023-05-09T02:19:24.201Z,54.76
2023-05-09T02:20:27.204Z,52.73
2023-05-09T02:21:31.145Z,53.05
2023-05-09T02:22:34.104Z,53.89
2023-05-09T02:23:38.129Z,55.09
2023-05-09T02:24:43.342Z,55.18
2023-05-09T02:25:48.447Z,54.87
2023-05-09T02:26:51.486Z,55.44
2023-05-09T02:27:58.413Z,55.25
2023-05-09T02:29:04.312Z,55.61
2023-05-09T02:30:12.974Z,55.27
2023-05-09T02:31:21.003Z,55.78
2023-05-09T02:32:29.155Z,55.89
2023-05-09T02:33:34.871Z,56.44
2023-05-09T02:34:40.605Z,56.89
2023-05-09T02:35:46.036Z,56.54
2023-05-09T02:36:50.305Z,55.79
2023-05-09T02:37:53.645Z,56.83
2023-05-09T02:38:58.034Z,55.53
2023-05-09T02:40:01.585Z,55.27
2023-05-09T02:41:07.751Z,55.47
2023-05-09T02:42:12.480Z,56.12
2023-05-09T02:43:16.526Z,55.59
2023-05-09T02:44:19.471Z,55.26
2023-05-09T02:45:24.141Z,54.77
2023-05-09T02:46:28.470Z,54.82
2023-05-09T02:47:32.420Z,54.61
2023-05-09T02:48:36.731Z,54.38
2023-05-09T02:49:40.604Z,54.64
2023-05-09T02:50:43.752Z,55.28
2023-05-09T02:51:47.751Z,55.17
2023-05-09T02:52:50.637Z,55.13
2023-05-09T02:53:54.959Z,54.44
2023-05-09T02:54:57.823Z,55.46
2023-05-09T02:56:01.857Z,55.28
2023-05-09T02:57:04.965Z,54.87
2023-05-09T02:58:14.250Z,54.54
2023-05-09T02:59:19.913Z,54.39
2023-05-09T03:00:25.977Z,53.80
2023-05-09T03:01:30.501Z,53.81
2023-05-09T03:02:34.445Z,53.68
2023-05-09T03:03:38.290Z,53.99
2023-05-09T03:04:42.676Z,53.41
2023-05-09T03:05:45.861Z,53.18
2023-05-09T03:06:49.780Z,53.81
2023-05-09T03:07:53.008Z,54.08
2023-05-09T03:08:57.018Z,54.38
2023-05-09T03:10:01.428Z,54.66
2023-05-09T03:11:07.798Z,54.82
2023-05-09T03:12:11.131Z,54.05
2023-05-09T03:13:15.249Z,54.74
2023-05-09T03:14:18.687Z,55.19
2023-05-09T03:15:23.325Z,53.79
2023-05-09T03:16:26.378Z,54.48
2023-05-09T03:17:31.841Z,54.26
2023-05-09T03:18:35.354Z,55.62
2023-05-09T03:19:39.174Z,53.87
2023-05-09T03:20:42.098Z,54.38
2023-05-09T03:21:46.152Z,54.74
2023-05-09T03:22:49.277Z,55.62
2023-05-09T03:23:53.154Z,54.85
2023-05-09T03:24:56.005Z,55.28
2023-05-09T03:26:00.114Z,55.90
2023-05-09T03:27:02.979Z,54.12
2023-05-09T03:28:07.198Z,55.82
2023-05-09T03:29:10.176Z,55.43
2023-05-09T03:30:16.630Z,54.05
2023-05-09T03:31:22.019Z,52.79
2023-05-09T03:32:26.728Z,53.69
2023-05-09T03:33:31.529Z,54.29
2023-05-09T03:34:37.593Z,53.39
2023-05-09T03:35:41.386Z,53.37
2023-05-09T03:36:46.003Z,52.43
2023-05-09T03:37:50.847Z,51.20
2023-05-09T03:38:55.335Z,50.87
2023-05-09T03:39:59.149Z,50.82
2023-05-09T03:41:04.677Z,51.13
2023-05-09T03:42:08.623Z,52.62
2023-05-09T03:43:12.625Z,50.93
2023-05-09T03:44:15.577Z,48.90
2023-05-09T03:45:19.461Z,49.40
2023-05-09T03:46:23.241Z,49.92
2023-05-09T03:47:27.379Z,48.92
2023-05-09T03:48:31.622Z,49.75
2023-05-09T03:49:36.470Z,50.09
2023-05-09T03:50:39.693Z,50.93
2023-05-09T03:51:44.054Z,51.66
2023-05-09T03:52:51.565Z,48.96
2023-05-09T03:53:55.561Z,47.99
2023-05-09T03:54:59.214Z,47.83
2023-05-09T03:56:03.228Z,47.03
2023-05-09T03:57:09.600Z,45.70
2023-05-09T03:58:13.922Z,44.08
2023-05-09T03:59:18.742Z,44.83
2023-05-09T04:00:23.935Z,44.63
2023-05-09T04:01:38.251Z,45.25
2023-05-09T04:02:45.069Z,45.30
2023-05-09T04:03:58.758Z,45.99
2023-05-09T04:05:04.158Z,46.23
2023-05-09T04:06:07.579Z,44.93
2023-05-09T04:07:15.163Z,44.38
2023-05-09T04:08:18.026Z,43.74
2023-05-09T04:09:22.495Z,40.30
2023-05-09T04:10:25.750Z,40.62
2023-05-09T04:11:30.832Z,40.38
2023-05-09T04:12:35.123Z,40.50
2023-05-09T04:13:39.157Z,40.51
2023-05-09T04:14:52.072Z,40.18
2023-05-09T04:15:56.318Z,41.29
2023-05-09T04:17:00.744Z,40.80
2023-05-09T04:18:03.986Z,41.70
2023-05-09T04:19:10.411Z,41.80
2023-05-09T04:20:14.389Z,41.41
2023-05-09T04:21:19.743Z,40.27
2023-05-09T04:22:25.429Z,40.07
2023-05-09T04:23:29.327Z,39.36
2023-05-09T04:24:34.578Z,40.24
2023-05-09T04:25:38.878Z,39.51
2023-05-09T04:26:42.171Z,38.83
2023-05-09T04:27:49.291Z,39.23
2023-05-09T04:28:53.250Z,39.60
2023-05-09T04:29:57.561Z,40.19
2023-05-09T04:31:00.637Z,41.19
2023-05-09T04:32:05.271Z,40.54
2023-05-09T04:33:08.089Z,39.57
2023-05-09T04:34:13.627Z,39.30
2023-05-09T04:35:19.011Z,38.66
2023-05-09T04:36:25.449Z,38.66
2023-05-09T04:37:28.404Z,38.95
2023-05-09T04:38:32.982Z,39.34
2023-05-09T04:39:35.947Z,39.03
2023-05-09T04:40:48.965Z,39.32
2023-05-09T04:41:53.322Z,39.25
2023-05-09T04:42:57.568Z,37.71
2023-05-09T04:44:04.008Z,37.61
2023-05-09T04:45:07.896Z,36.25
2023-05-09T04:46:12.352Z,36.93
2023-05-09T04:47:15.437Z,35.82
2023-05-09T04:48:19.351Z,36.34
2023-05-09T04:49:23.613Z,36.66
2023-05-09T04:50:27.486Z,36.09
2023-05-09T04:51:30.453Z,36.45
2023-05-09T04:52:34.285Z,35.91
2023-05-09T04:53:37.524Z,37.46
2023-05-09T04:54:41.919Z,37.49
2023-05-09T04:55:44.816Z,37.09
2023-05-09T04:56:50.620Z,38.65
2023-05-09T04:57:54.086Z,36.73
2023-05-09T04:59:00.206Z,37.52
2023-05-09T05:00:03.182Z,36.85
2023-05-09T05:01:07.818Z,37.57
2023-05-09T05:02:11.317Z,38.75
2023-05-09T05:03:15.657Z,38.25
2023-05-09T05:04:18.944Z,37.81
2023-05-09T05:05:25.377Z,37.00
2023-05-09T05:06:29.701Z,37.31
2023-05-09T05:07:33.876Z,38.08
2023-05-09T05:08:36.932Z,38.10
2023-05-09T05:09:40.806Z,37.43
2023-05-09T05:10:43.748Z,36.70
2023-05-09T05:11:59.583Z,36.71
2023-05-09T05:13:06.852Z,36.57
2023-05-09T05:14:11.414Z,37.52
2023-05-09T05:15:16.019Z,38.39
2023-05-09T05:16:21.432Z,37.31
2023-05-09T05:17:25.995Z,35.06
2023-05-09T05:18:28.926Z,35.37
2023-05-09T05:19:33.095Z,34.88
2023-05-09T05:20:40.403Z,34.34
2023-05-09T05:21:44.696Z,34.82
2023-05-09T05:22:47.486Z,35.29
2023-05-09T05:23:51.530Z,34.45
2023-05-09T05:24:54.278Z,33.92
2023-05-09T05:25:58.256Z,35.91
2023-05-09T05:27:01.279Z,35.83
2023-05-09T05:28:05.434Z,35.46
2023-05-09T05:29:08.157Z,35.06
2023-05-09T05:30:15.915Z,34.67
2023-05-09T05:31:19.437Z,35.54
2023-05-09T05:32:23.480Z,35.43
2023-05-09T05:33:26.452Z,36.73
2023-05-09T05:34:30.666Z,35.81
2023-05-09T05:35:33.765Z,37.27
2023-05-09T05:36:39.449Z,37.09
2023-05-09T05:37:42.586Z,38.16
2023-05-09T05:38:46.971Z,37.67
2023-05-09T05:39:52.269Z,35.78
2023-05-09T05:40:56.770Z,36.12
2023-05-09T05:42:01.008Z,36.62
2023-05-09T05:43:05.852Z,36.37
2023-05-09T05:44:10.076Z,36.41
2023-05-09T05:45:15.392Z,35.63
2023-05-09T05:46:23.050Z,35.52
2023-05-09T05:47:27.485Z,35.77
2023-05-09T05:48:30.921Z,35.93
2023-05-09T05:49:35.200Z,35.93
2023-05-09T05:50:38.067Z,36.65
2023-05-09T05:51:43.815Z,36.25
2023-05-09T05:52:47.495Z,36.76
2023-05-09T05:53:53.199Z,35.79
2023-05-09T05:54:56.986Z,35.25
2023-05-09T05:56:01.781Z,35.82
2023-05-09T05:57:05.715Z,35.88
2023-05-09T05:58:10.093Z,36.82
2023-05-09T05:59:13.653Z,35.93
2023-05-09T06:00:17.893Z,36.35
2023-05-09T06:01:25.679Z,37.66
2023-05-09T06:02:28.892Z,36.95
2023-05-09T06:03:32.887Z,36.53
2023-05-09T06:04:40.132Z,36.08
2023-05-09T06:05:44.053Z,36.28
2023-05-09T06:06:50.687Z,36.40
2023-05-09T06:07:53.710Z,36.36
2023-05-09T06:08:57.762Z,34.42
2023-05-09T06:10:00.537Z,33.98
2023-05-09T06:11:06.074Z,34.76
2023-05-09T06:12:10.377Z,35.16
2023-05-09T06:13:13.601Z,34.05
2023-05-09T06:14:21.490Z,32.88
2023-05-09T06:15:24.621Z,33.49
2023-05-09T06:16:28.648Z,33.57
2023-05-09T06:17:31.609Z,33.64
2023-05-09T06:18:38.137Z,35.47
2023-05-09T06:19:42.217Z,33.91
2023-05-09T06:20:44.814Z,33.30
2023-05-09T06:21:50.281Z,34.63
2023-05-09T06:22:53.135Z,34.27
2023-05-09T06:24:09.890Z,34.58
2023-05-09T06:25:15.633Z,34.53
2023-05-09T06:26:19.883Z,34.47
2023-05-09T06:27:23.090Z,35.49
2023-05-09T06:28:27.579Z,37.32
2023-05-09T06:29:31.045Z,37.00
2023-05-09T06:30:35.094Z,35.54
2023-05-09T06:31:39.422Z,37.05
2023-05-09T06:32:43.809Z,39.84
2023-05-09T06:33:47.930Z,37.51
2023-05-09T06:34:51.216Z,37.72
2023-05-09T06:35:55.113Z,38.40
2023-05-09T06:37:00.552Z,36.25
2023-05-09T06:38:03.970Z,36.57
2023-05-09T06:39:08.061Z,36.84
2023-05-09T06:40:12.590Z,35.38
2023-05-09T06:41:16.781Z,35.58
2023-05-09T06:42:19.497Z,36.37
2023-05-09T06:43:23.481Z,36.20
2023-05-09T06:44:27.042Z,35.89
2023-05-09T06:45:31.612Z,37.34
2023-05-09T06:46:34.533Z,34.38
2023-05-09T06:47:39.087Z,33.89
2023-05-09T06:48:41.901Z,35.48
2023-05-09T06:49:45.985Z,34.08
2023-05-09T06:50:49.707Z,33.92
2023-05-09T06:51:53.202Z,33.35
2023-05-09T06:52:58.988Z,34.54
2023-05-09T06:54:03.276Z,35.71
2023-05-09T06:55:07.557Z,36.36
2023-05-09T06:56:11.667Z,34.79
2023-05-09T06:57:14.658Z,34.14
2023-05-09T06:58:18.767Z,34.23
2023-05-09T06:59:21.617Z,33.96
2023-05-09T07:00:25.951Z,34.56
2023-05-09T07:01:30.051Z,35.85
2023-05-09T07:02:33.095Z,33.78
2023-05-09T07:03:37.260Z,34.32
2023-05-09T07:04:41.168Z,33.86
2023-05-09T07:05:43.994Z,33.75
2023-05-09T07:06:48.189Z,33.86
2023-05-09T07:07:51.396Z,33.09
2023-05-09T07:08:57.037Z,32.70
2023-05-09T07:10:10.663Z,33.13
2023-05-09T07:11:16.827Z,33.36
2023-05-09T07:12:19.756Z,33.27
2023-05-09T07:13:24.196Z,34.07
2023-05-09T07:14:27.161Z,33.57
2023-05-09T07:15:41.484Z,33.26
2023-05-09T07:16:47.106Z,33.86
2023-05-09T07:17:50.117Z,33.43
2023-05-09T07:18:53.985Z,33.50
2023-05-09T07:19:56.895Z,33.64
2023-05-09T07:21:00.753Z,33.73
2023-05-09T07:22:03.590Z,34.74
2023-05-09T07:23:07.856Z,35.19
2023-05-09T07:24:12.255Z,36.35
2023-05-09T07:25:16.451Z,34.52
2023-05-09T07:26:19.861Z,34.39
2023-05-09T07:27:23.656Z,33.88
2023-05-09T07:28:27.471Z,34.61
2023-05-09T07:29:31.510Z,34.45
2023-05-09T07:30:35.494Z,34.25
2023-05-09T07:31:38.265Z,34.43
2023-05-09T07:32:42.201Z,34.62
2023-05-09T07:33:44.726Z,35.35
2023-05-09T07:34:48.548Z,34.12
2023-05-09T07:35:53.146Z,34.21
2023-05-09T07:36:58.853Z,34.37
2023-05-09T07:38:01.767Z,34.20
2023-05-09T07:39:06.268Z,34.40
2023-05-09T07:40:12.838Z,35.29
2023-05-09T07:41:15.726Z,34.63
2023-05-09T07:42:19.772Z,35.21
2023-05-09T07:43:22.118Z,34.80
2023-05-09T07:44:25.732Z,34.57
2023-05-09T07:45:29.870Z,34.91
2023-05-09T07:46:32.772Z,34.89
2023-05-09T07:47:36.886Z,35.00
2023-05-09T07:48:40.251Z,34.61
2023-05-09T07:49:46.866Z,34.32
2023-05-09T07:50:51.145Z,34.45
2023-05-09T07:51:54.654Z,34.62
2023-05-09T07:52:58.592Z,34.63
2023-05-09T07:54:02.487Z,34.93
2023-05-09T07:55:08.057Z,35.38
2023-05-09T07:56:12.719Z,34.88
2023-05-09T07:57:17.040Z,34.26
2023-05-09T07:58:20.178Z,34.72
2023-05-09T07:59:24.166Z,34.57
2023-05-09T08:00:28.336Z,34.82
2023-05-09T08:01:32.598Z,35.23
2023-05-09T08:02:35.457Z,34.71
2023-05-09T08:03:39.578Z,33.37
2023-05-09T08:04:44.306Z,34.38
2023-05-09T08:05:47.475Z,35.01
2023-05-09T08:06:51.524Z,33.36
2023-05-09T08:07:55.627Z,34.84
2023-05-09T08:08:58.310Z,34.30
2023-05-09T08:10:02.768Z,33.97
2023-05-09T08:11:06.541Z,34.20
2023-05-09T08:12:11.545Z,33.64
2023-05-09T08:13:14.469Z,34.01
2023-05-09T08:14:18.704Z,33.24
2023-05-09T08:15:21.775Z,32.80
2023-05-09T08:16:26.237Z,33.05
2023-05-09T08:17:29.329Z,33.91
2023-05-09T08:18:33.862Z,31.50
2023-05-09T08:19:36.590Z,31.48
2023-05-09T08:20:40.759Z,31.61
2023-05-09T08:21:43.443Z,31.88
2023-05-09T08:22:47.248Z,31.36
2023-05-09T08:23:52.681Z,31.47
2023-05-09T08:24:55.335Z,32.18
2023-05-09T08:25:59.368Z,32.80
2023-05-09T08:27:04.035Z,32.31
2023-05-09T08:28:09.445Z,32.34
2023-05-09T08:29:13.161Z,31.81
2023-05-09T08:30:17.669Z,31.95
2023-05-09T08:31:21.614Z,31.64
2023-05-09T08:32:25.773Z,31.00
2023-05-09T08:33:29.941Z,31.11
2023-05-09T08:34:34.897Z,31.49
2023-05-09T08:35:37.568Z,30.91
2023-05-09T08:36:41.792Z,32.05
2023-05-09T08:37:44.962Z,31.22
2023-05-09T08:38:49.752Z,31.51
2023-05-09T08:39:52.977Z,32.99
2023-05-09T08:41:02.280Z,32.68
2023-05-09T08:42:05.307Z,31.70
2023-05-09T08:43:12.223Z,31.39
2023-05-09T08:44:19.091Z,32.51
2023-05-09T08:45:28.737Z,33.98
2023-05-09T08:46:38.140Z,32.56
2023-05-09T08:47:43.245Z,32.24
2023-05-09T08:48:47.343Z,32.08
2023-05-09T08:49:52.671Z,32.01
2023-05-09T08:50:56.485Z,31.50
2023-05-09T08:52:01.547Z,31.29
2023-05-09T08:53:05.867Z,30.99
2023-05-09T08:54:10.162Z,31.32
2023-05-09T08:55:14.287Z,31.28
2023-05-09T08:56:17.963Z,31.25
2023-05-09T08:57:21.868Z,31.98
2023-05-09T08:58:27.299Z,32.72
2023-05-09T08:59:35.649Z,33.27
2023-05-09T09:00:40.291Z,32.62
2023-05-09T09:01:45.311Z,32.40
2023-05-09T09:02:49.159Z,32.01
2023-05-09T09:03:53.578Z,31.43
2023-05-09T09:04:56.827Z,31.10
2023-05-09T09:06:01.451Z,31.87
2023-05-09T09:07:06.015Z,32.46
2023-05-09T09:08:11.216Z,32.35
2023-05-09T09:09:17.032Z,32.24
2023-05-09T09:10:22.042Z,33.08
2023-05-09T09:11:28.798Z,32.77
2023-05-09T09:12:34.236Z,32.62
2023-05-09T09:13:40.997Z,32.81
2023-05-09T09:14:49.838Z,32.64
2023-05-09T09:15:54.820Z,32.28
2023-05-09T09:17:00.083Z,32.17
2023-05-09T09:18:10.265Z,31.11
2023-05-09T09:19:18.262Z,30.85
2023-05-09T09:20:24.378Z,30.78
2023-05-09T09:21:29.036Z,31.10
2023-05-09T09:22:35.180Z,30.74
2023-05-09T09:23:43.346Z,31.17
2023-05-09T09:24:47.741Z,31.40
2023-05-09T09:25:59.476Z,31.15
2023-05-09T09:27:07.977Z,31.31
2023-05-09T09:28:12.034Z,32.08
2023-05-09T09:29:18.711Z,31.67
2023-05-09T09:30:25.915Z,31.63
2023-05-09T09:31:35.016Z,32.78
2023-05-09T09:32:40.559Z,32.52
2023-05-09T09:33:45.826Z,31.60
2023-05-09T09:34:51.898Z,31.03
2023-05-09T09:35:56.525Z,31.16
2023-05-09T09:37:00.775Z,31.05
2023-05-09T09:38:07.179Z,30.54
2023-05-09T09:39:11.130Z,30.27
2023-05-09T09:40:15.850Z,30.96
2023-05-09T09:41:20.236Z,31.07
2023-05-09T09:42:25.914Z,31.41
2023-05-09T09:43:29.758Z,29.95
2023-05-09T09:44:35.796Z,29.77
2023-05-09T09:45:43.734Z,30.21
2023-05-09T09:46:51.218Z,29.86
2023-05-09T09:47:55.247Z,30.47
2023-05-09T09:48:58.497Z,30.77
2023-05-09T09:50:12.129Z,29.56
2023-05-09T09:51:15.256Z,29.60
2023-05-09T09:52:27.228Z,30.36
2023-05-09T09:53:31.522Z,29.83
2023-05-09T09:54:35.672Z,29.42
2023-05-09T09:55:50.526Z,29.30
2023-05-09T09:56:55.350Z,29.29
2023-05-09T09:57:59.738Z,30.16
2023-05-09T09:59:14.264Z,31.33
2023-05-09T10:00:21.729Z,30.17
2023-05-09T10:01:25.846Z,29.13
2023-05-09T10:02:29.795Z,28.59
2023-05-09T10:03:38.852Z,28.79
2023-05-09T10:04:43.584Z,28.76
2023-05-09T10:05:47.978Z,29.11
2023-05-09T10:06:54.964Z,28.65
2023-05-09T10:08:00.256Z,29.12
2023-05-09T10:09:03.086Z,29.00
2023-05-09T10:10:08.430Z,29.82
2023-05-09T10:11:12.821Z,28.97
2023-05-09T10:12:20.178Z,29.81
2023-05-09T10:13:24.408Z,29.96
2023-05-09T10:14:27.269Z,30.37
2023-05-09T10:15:45.109Z,30.11
2023-05-09T10:16:58.352Z,29.76
2023-05-09T10:18:04.620Z,30.53
2023-05-09T10:19:08.690Z,29.94
2023-05-09T10:20:15.391Z,28.33
2023-05-09T10:21:19.554Z,27.66
2023-05-09T10:22:25.071Z,27.78
2023-05-09T10:23:31.058Z,29.00
2023-05-09T10:24:38.005Z,27.75
2023-05-09T10:25:48.522Z,27.72
2023-05-09T10:26:55.220Z,27.66
2023-05-09T10:28:02.920Z,27.38
2023-05-09T10:29:11.117Z,27.69
2023-05-09T10:30:19.523Z,27.46
2023-05-09T10:31:27.535Z,28.40
2023-05-09T10:32:37.640Z,27.22
2023-05-09T10:33:48.132Z,26.97
2023-05-09T10:34:56.548Z,27.00
2023-05-09T10:36:02.456Z,26.92
2023-05-09T10:37:05.774Z,27.37
2023-05-09T10:38:12.614Z,27.17
2023-05-09T10:39:17.827Z,28.26
2023-05-09T10:40:23.161Z,28.64
2023-05-09T10:41:27.086Z,28.22
2023-05-09T10:42:31.713Z,27.72
2023-05-09T10:43:36.887Z,27.55
2023-05-09T10:44:41.509Z,27.34
2023-05-09T10:45:44.848Z,28.01
2023-05-09T10:46:50.843Z,26.79
2023-05-09T10:47:57.187Z,26.30
2023-05-09T10:49:01.510Z,26.58
2023-05-09T10:50:06.602Z,25.72
2023-05-09T10:51:10.907Z,25.78
2023-05-09T10:52:17.079Z,25.85
2023-05-09T10:53:24.470Z,25.25
2023-05-09T10:54:31.119Z,25.00
2023-05-09T10:55:38.344Z,24.89
2023-05-09T10:56:42.582Z,23.83
2023-05-09T10:57:53.870Z,22.94
2023-05-09T10:58:57.955Z,23.12
2023-05-09T11:00:01.000Z,22.93
2023-05-09T11:01:11.166Z,22.53
2023-05-09T11:02:20.966Z,22.94
2023-05-09T11:03:26.914Z,22.39
2023-05-09T11:04:30.949Z,23.07
2023-05-09T11:05:40.914Z,23.11
2023-05-09T11:06:49.705Z,22.68
2023-05-09T11:08:20.358Z,22.50
2023-05-09T11:09:30.383Z,22.71
2023-05-09T11:10:43.622Z,23.46
2023-05-09T11:11:52.610Z,23.98
2023-05-09T11:12:58.564Z,23.84
2023-05-09T11:14:03.058Z,24.36
2023-05-09T11:15:09.284Z,24.16
2023-05-09T11:16:12.993Z,24.43
2023-05-09T11:17:52.504Z,24.50
2023-05-09T11:18:56.497Z,24.10
2023-05-09T11:20:07.182Z,23.30
2023-05-09T11:21:11.254Z,23.26
2023-05-09T11:22:16.159Z,23.71
2023-05-09T11:23:21.968Z,23.51
2023-05-09T11:24:28.622Z,23.50
2023-05-09T11:25:32.584Z,23.19
2023-05-09T11:26:36.024Z,22.32
2023-05-09T11:27:44.091Z,22.38
2023-05-09T11:28:57.053Z,22.30
2023-05-09T11:30:05.165Z,21.52
2023-05-09T11:31:13.807Z,21.36
2023-05-09T11:32:19.735Z,21.36
2023-05-09T11:33:24.995Z,21.06
2023-05-09T11:34:30.976Z,20.76
2023-05-09T11:35:37.640Z,21.73
2023-05-09T11:36:49.285Z,20.82
2023-05-09T11:37:55.436Z,21.12
2023-05-09T11:39:07.900Z,22.24
2023-05-09T11:40:13.963Z,21.39
2023-05-09T11:41:18.201Z,22.12
2023-05-09T11:42:24.050Z,21.13
2023-05-09T11:43:28.057Z,21.08
2023-05-09T11:44:33.634Z,21.90
2023-05-09T11:45:37.926Z,22.26
2023-05-09T11:46:40.880Z,22.06
2023-05-09T11:47:47.643Z,22.08
2023-05-09T11:48:51.655Z,22.46
2023-05-09T11:49:55.622Z,22.31
2023-05-09T11:51:00.181Z,21.35
2023-05-09T11:52:03.415Z,21.48
2023-05-09T11:53:08.516Z,21.60
2023-05-09T11:54:15.247Z,21.10
2023-05-09T11:55:22.930Z,19.57
2023-05-09T11:56:26.315Z,20.46
2023-05-09T11:57:30.336Z,21.26
2023-05-09T11:58:34.176Z,20.29
2023-05-09T11:59:39.931Z,19.98
2023-05-09T12:00:46.405Z,19.02
2023-05-09T12:01:49.543Z,19.05
2023-05-09T12:02:55.310Z,19.28
2023-05-09T12:03:59.093Z,18.88
2023-05-09T12:05:09.429Z,19.18
2023-05-09T12:06:18.577Z,18.47
2023-05-09T12:07:23.400Z,18.20
2023-05-09T12:08:28.707Z,18.28
2023-05-09T12:09:33.147Z,18.49
2023-05-09T12:10:39.936Z,19.07
2023-05-09T12:11:50.287Z,18.74
2023-05-09T12:12:57.432Z,19.47
2023-05-09T12:14:01.872Z,19.54
2023-05-09T12:15:07.893Z,19.53
2023-05-09T12:16:12.065Z,19.51
2023-05-09T12:17:16.452Z,18.85
2023-05-09T12:18:22.535Z,18.86
2023-05-09T12:19:25.867Z,18.50
2023-05-09T12:20:29.958Z,18.55
2023-05-09T12:21:33.861Z,18.21
2023-05-09T12:22:38.932Z,18.64
2023-05-09T12:23:42.265Z,19.20
2023-05-09T12:24:46.258Z,18.61
2023-05-09T12:25:49.561Z,17.66
2023-05-09T12:26:54.139Z,18.86
2023-05-09T12:27:57.924Z,16.92
2023-05-09T12:29:02.175Z,16.97
2023-05-09T12:30:10.423Z,17.86
2023-05-09T12:31:14.920Z,16.89
2023-05-09T12:32:18.463Z,17.34
2023-05-09T12:33:24.520Z,17.84
2023-05-09T12:34:28.905Z,17.68
2023-05-09T12:35:32.494Z,17.56
2023-05-09T12:36:37.510Z,17.30
2023-05-09T12:37:41.495Z,17.28
2023-05-09T12:38:54.865Z,17.79
2023-05-09T12:40:07.855Z,17.13
2023-05-09T12:41:30.889Z,16.72
2023-05-09T12:42:37.417Z,17.85
2023-05-09T12:43:41.236Z,17.37
2023-05-09T12:44:50.055Z,16.96
2023-05-09T12:45:54.720Z,17.31
2023-05-09T12:47:00.142Z,17.44
2023-05-09T12:48:05.320Z,17.00
2023-05-09T12:49:21.682Z,17.36
2023-05-09T12:50:32.675Z,17.32
2023-05-09T12:51:36.787Z,17.39
2023-05-09T12:52:54.703Z,17.57
2023-05-09T12:54:06.288Z,17.24
2023-05-09T12:55:12.001Z,16.65
2023-05-09T12:56:19.307Z,16.36
2023-05-09T12:57:25.040Z,16.19
2023-05-09T12:58:30.594Z,16.61
2023-05-09T12:59:34.729Z,16.88
2023-05-09T13:00:45.086Z,16.76
2023-05-09T13:01:54.893Z,16.33
2023-05-09T13:02:58.607Z,16.87
2023-05-09T13:04:04.343Z,16.92
2023-05-09T13:05:11.900Z,16.72
2023-05-09T13:06:15.434Z,16.66
2023-05-09T13:07:19.531Z,16.83
2023-05-09T13:08:22.593Z,16.51
2023-05-09T13:09:28.104Z,16.29
2023-05-09T13:10:30.953Z,16.65
2023-05-09T13:11:35.531Z,16.59
2023-05-09T13:12:40.734Z,17.08
2023-05-09T13:13:43.808Z,17.36
2023-05-09T13:14:48.092Z,17.05
2023-05-09T13:15:52.312Z,17.33
2023-05-09T13:16:56.265Z,16.69
2023-05-09T13:17:59.833Z,17.47
2023-05-09T13:19:08.261Z,17.97
2023-05-09T13:20:14.461Z,17.60
2023-05-09T13:21:18.580Z,17.68
2023-05-09T13:22:22.720Z,17.46
2023-05-09T13:23:25.358Z,17.17
2023-05-09T13:24:30.182Z,16.85
2023-05-09T13:25:33.108Z,17.66
2023-05-09T13:26:37.125Z,17.43
2023-05-09T13:27:40.023Z,17.45
2023-05-09T13:28:44.098Z,18.84
2023-05-09T13:29:48.142Z,18.11
2023-05-09T13:30:51.089Z,18.08
2023-05-09T13:31:55.159Z,18.35
2023-05-09T13:33:00.348Z,19.77
2023-05-09T13:34:07.828Z,19.28
2023-05-09T13:35:12.734Z,20.43
2023-05-09T13:36:17.081Z,20.50
2023-05-09T13:37:21.883Z,20.72
2023-05-09T13:38:25.994Z,20.71
2023-05-09T13:39:28.880Z,20.57
2023-05-09T13:40:32.990Z,20.71
2023-05-09T13:41:38.176Z,21.23
2023-05-09T13:42:41.161Z,21.72
2023-05-09T13:43:45.178Z,23.49
2023-05-09T13:44:49.283Z,23.60
2023-05-09T13:45:52.273Z,24.40
2023-05-09T13:46:57.968Z,24.81
2023-05-09T13:48:01.050Z,24.43
2023-05-09T13:49:04.838Z,25.20
2023-05-09T13:50:10.284Z,24.78
2023-05-09T13:51:18.092Z,24.92
2023-05-09T13:52:20.956Z,25.22
2023-05-09T13:53:24.845Z,25.08
2023-05-09T13:54:35.063Z,24.88
2023-05-09T13:55:38.928Z,24.94
2023-05-09T13:56:43.364Z,24.83
2023-05-09T13:57:47.491Z,24.96
2023-05-09T13:58:51.514Z,25.54
2023-05-09T13:59:54.656Z,26.10
2023-05-09T14:00:59.094Z,25.22
2023-05-09T14:02:02.122Z,25.96